地図

経路データ

SID SEASON NUMBER BASIN SUBBASIN NAME ISO_TIME NATURE LAT LON WMO_WIND WMO_PRES WMO_AGENCY TRACK_TYPE DIST2LAND LANDFALL IFLAG USA_AGENCY USA_ATCF_ID USA_LAT USA_LON USA_RECORD USA_STATUS USA_WIND USA_PRES USA_SSHS USA_R34_NE USA_R34_SE USA_R34_SW USA_R34_NW USA_R50_NE USA_R50_SE USA_R50_SW USA_R50_NW USA_R64_NE USA_R64_SE USA_R64_SW USA_R64_NW USA_POCI USA_ROCI USA_RMW USA_EYE TOKYO_LAT TOKYO_LON TOKYO_GRADE TOKYO_WIND TOKYO_PRES TOKYO_R50_DIR TOKYO_R50_LONG TOKYO_R50_SHORT TOKYO_R30_DIR TOKYO_R30_LONG TOKYO_R30_SHORT TOKYO_LAND CMA_LAT CMA_LON CMA_CAT CMA_WIND CMA_PRES HKO_LAT HKO_LON HKO_CAT HKO_WIND HKO_PRES NEWDELHI_LAT NEWDELHI_LON NEWDELHI_GRADE NEWDELHI_WIND NEWDELHI_PRES NEWDELHI_CI NEWDELHI_DP NEWDELHI_POCI REUNION_LAT REUNION_LON REUNION_TYPE REUNION_WIND REUNION_PRES REUNION_TNUM REUNION_CI REUNION_RMW REUNION_R34_NE REUNION_R34_SE REUNION_R34_SW REUNION_R34_NW REUNION_R50_NE REUNION_R50_SE REUNION_R50_SW REUNION_R50_NW REUNION_R64_NE REUNION_R64_SE REUNION_R64_SW REUNION_R64_NW BOM_LAT BOM_LON BOM_TYPE BOM_WIND BOM_PRES BOM_TNUM BOM_CI BOM_RMW BOM_R34_NE BOM_R34_SE BOM_R34_SW BOM_R34_NW BOM_R50_NE BOM_R50_SE BOM_R50_SW BOM_R50_NW BOM_R64_NE BOM_R64_SE BOM_R64_SW BOM_R64_NW BOM_ROCI BOM_POCI BOM_EYE BOM_POS_METHOD BOM_PRES_METHOD NADI_LAT NADI_LON NADI_CAT NADI_WIND NADI_PRES WELLINGTON_LAT WELLINGTON_LON WELLINGTON_WIND WELLINGTON_PRES DS824_LAT DS824_LON DS824_STAGE DS824_WIND DS824_PRES TD9636_LAT TD9636_LON TD9636_STAGE TD9636_WIND TD9636_PRES TD9635_LAT TD9635_LON TD9635_WIND TD9635_PRES TD9635_ROCI NEUMANN_LAT NEUMANN_LON NEUMANN_CLASS NEUMANN_WIND NEUMANN_PRES MLC_LAT MLC_LON MLC_CLASS MLC_WIND MLC_PRES USA_GUST BOM_GUST BOM_GUST_PER REUNION_GUST REUNION_GUST_PER USA_SEAHGT USA_SEARAD_NE USA_SEARAD_SE USA_SEARAD_SW USA_SEARAD_NW STORM_SPEED STORM_DIR
1945030S14149 1945 8 SP EA NOT_NAMED 1945-01-29 23:00:00 NR -14.0000 149.100 1004 bom main 388 388 ______O___O___ -1 -14.0000 149.100 1004 -14.0000 149.100 7 9 265
1945030S14149 1945 8 SP EA NOT_NAMED 1945-01-30 00:00:00 TS -14.0121 148.945 main 395 359 O_____P__OP___ jtwc_sh SH041945 -14.0000 148.900 -1 -14.0217 148.998 -14.0000 149.000 TC 20 1004 -14.0205 148.911 7 9 263
1945030S14149 1945 8 SP EA NOT_NAMED 1945-01-30 03:00:00 TS -14.0705 148.484 main 359 307 P_____P__PP___ SH041945 -14.0427 148.355 -1 -14.0883 148.690 -14.0804 148.640 TC -14.0833 148.345 7 9 262
1945030S14149 1945 8 SP EA NOT_NAMED 1945-01-30 06:00:00 TS -14.1381 148.019 main 307 263 O_____P__PP___ jtwc_sh SH041945 -14.1000 147.800 -1 -14.1606 148.381 -14.1647 148.283 TC -14.1528 147.788 7 9 261
1945030S14149 1945 8 SP EA NOT_NAMED 1945-01-30 09:00:00 TS -14.2211 147.544 main 253 229 P_____P__PP___ SH041945 -14.1850 147.235 -1 -14.2432 148.067 -14.2573 147.933 TC -14.2350 147.248 7 9 259
1945030S14149 1945 8 SP EA NOT_NAMED 1945-01-30 11:00:00 TS -14.2898 147.241 main 218 208 P_____P__PO___ SH041945 -14.2583 146.872 -1 -14.3063 147.855 -14.3258 147.705 TC -14.3000 146.900 7 9 256
1945030S14149 1945 8 SP EA NOT_NAMED 1945-01-30 12:00:00 TS -14.3279 147.094 main 208 164 O_____P__PP___ jtwc_sh SH041945 -14.3000 146.700 -1 -14.3408 147.747 -14.3626 147.593 TC -14.3362 146.731 7 9 254
1945030S14149 1945 8 SP EA NOT_NAMED 1945-01-30 15:00:00 TS -14.4523 146.672 main 160 116 P_____P__PP___ SH041945 -14.4274 146.212 -1 -14.4578 147.421 -14.4851 147.266 TC -14.4636 146.249 7 8 250
1945030S14149 1945 8 SP EA NOT_NAMED 1945-01-30 18:00:00 TS -14.6108 146.293 main 116 78 O_____P__PP___ jtwc_sh SH041945 -14.6000 145.800 -1 -14.5990 147.085 -14.6291 146.956 TC -14.6260 145.824 7 8 243
1945030S14149 1945 8 SP EA NOT_NAMED 1945-01-30 21:00:00 TS -14.8081 145.955 main 78 53 P_____P__PP___ SH041945 -14.8199 145.448 -1 -14.7687 146.738 -14.7993 146.667 TC -14.8329 145.477 7 7 235
1945030S14149 1945 8 SP EA NOT_NAMED 1945-01-30 23:00:00 TS -14.9659 145.765 996 bom main 53 42 P_____O__PO___ SH041945 -15.0000 145.269 -1 -14.9000 146.500 996 4 -14.9294 146.486 TC -15.0000 145.300 7 7 227
1945030S14149 1945 8 SP EA NOT_NAMED 1945-01-31 00:00:00 TS -15.0527 145.681 main 39 10 O_____P__OP___ jtwc_sh SH041945 -15.1000 145.200 -1 -14.9717 146.379 -15.0000 146.400 TC 35 996 -15.0918 145.225 7 7 217
1945030S14149 1945 8 SP EA NOT_NAMED 1945-01-31 03:00:00 TS -15.3459 145.470 main 10 0 P_____P__PP___ SH041945 -15.4349 145.055 -1 -15.2201 146.010 -15.2341 146.160 TC -15.4054 145.070 7 7 209
1945030S14149 1945 8 SP EA NOT_NAMED 1945-01-31 06:00:00 TS -15.6794 145.318 main 0 0 O_____P__PP___ jtwc_sh SH041945 -15.8000 145.000 -1 -15.5377 145.641 -15.4973 145.951 TC -15.7620 144.999 7 7 202
1945030S14149 1945 8 SP EA NOT_NAMED 1945-01-31 08:00:00 TS -15.9112 145.237 bom main 0 0 P_____O__PP___ SH041945 -16.0279 144.984 -1 -15.8000 145.400 -15.6859 145.830 TC -16.0141 144.986 7 8 197
1945030S14149 1945 8 SP EA NOT_NAMED 1945-01-31 09:00:00 TS -16.0338 145.198 main 0 0 P_____P__PP___ SH041945 -16.1425 144.985 -1 -15.9582 145.258 -15.7835 145.776 TC -16.1424 144.987 7 8 195
1945030S14149 1945 8 SP EA NOT_NAMED 1945-01-31 11:00:00 TS -16.2892 145.130 main 0 0 P_____P__PO___ SH041945 -16.3776 144.995 -1 -16.3064 144.979 -15.9842 145.680 TC -16.4000 145.000 7 8 194
1945030S14149 1945 8 SP EA NOT_NAMED 1945-01-31 12:00:00 TS -16.4235 145.095 main 0 0 O_____P__PP___ jtwc_sh SH041945 -16.5000 145.000 -1 -16.4871 144.853 -16.0868 145.639 TC -16.5437 144.985 7 8 192
1945030S14149 1945 8 SP EA NOT_NAMED 1945-01-31 15:00:00 TS -16.8381 145.012 bom main 0 0 P_____O__PP___ SH041945 -16.9000 144.978 -1 -17.0000 144.600 -16.4012 145.545 TC -16.9895 144.962 7 8 185
1945030S14149 1945 8 SP EA NOT_NAMED 1945-01-31 18:00:00 TS -17.2275 145.019 main 0 0 O_____P__PP___ jtwc_sh SH041945 -17.3000 145.000 -1 -17.4057 144.610 -16.7205 145.496 TC -17.4113 144.988 7 8 172
1945030S14149 1945 8 SP EA NOT_NAMED 1945-01-31 21:00:00 TS -17.5935 145.118 main 0 0 P_____P__PP___ SH041945 -17.7249 145.097 -1 -17.7290 144.811 -17.0388 145.497 TC -17.7498 145.085 7 7 160
1945030S14149 1945 8 SP EA NOT_NAMED 1945-01-31 23:00:00 TS -17.7844 145.233 1002 bom main 0 0 P_____O__PO___ SH041945 -17.9373 145.219 -1 -17.9000 145.000 1002 -17.2475 145.528 TC -17.9000 145.200 7 6 145
1945030S14149 1945 8 SP EA NOT_NAMED 1945-02-01 00:00:00 TS -17.8516 145.302 main 0 0 O_____P__PP___ jtwc_sh SH041945 -18.0000 145.300 -1 -17.9763 145.078 -17.3500 145.553 TC -17.9318 145.279 7 5 115
1945030S14149 1945 8 SP EA NOT_NAMED 1945-02-01 03:00:00 TS -17.9316 145.570 main 0 0 P_____P__PP___ SH041945 -17.9676 145.620 -1 -18.1484 145.356 -17.6479 145.667 TC -17.9264 145.584 7 6 97
1945030S14149 1945 8 SP EA NOT_NAMED 1945-02-01 06:00:00 TS -17.9215 145.897 main 0 0 O_____P__PP___ jtwc_sh SH041945 -17.8000 146.000 -1 -18.2601 145.687 -17.9264 145.844 TC -17.8207 145.954 7 6 89
1945030S14149 1945 8 SP EA NOT_NAMED 1945-02-01 09:00:00 TS -17.9177 146.240 main 15 15 P_____P__PP___ SH041945 -17.6925 146.358 -1 -18.3438 146.050 -18.1792 146.086 TC -17.6804 146.347 7 7 90
1945030S14149 1945 8 SP EA NOT_NAMED 1945-02-01 11:00:00 TS -17.9171 146.473 bom main 43 43 P_____O__PO___ SH041945 -17.6276 146.589 -1 -18.4000 146.300 -18.3304 146.287 TC -17.6000 146.600 7 6 90
1945030S14149 1945 8 SP EA NOT_NAMED 1945-02-01 12:00:00 TS -17.9167 146.574 main 54 54 O_____P__OP___ jtwc_sh SH041945 -17.6000 146.700 -1 -18.4323 146.394 -18.4000 146.400 TC -17.5511 146.676 7 6 89
1945030S14149 1945 8 SP EA NOT_NAMED 1945-02-01 15:00:00 TS -17.9111 146.871 main 85 85 P_____P__PP___ SH041945 -17.5199 147.008 -1 -18.5253 146.678 -18.5849 146.784 TC -17.4054 146.879 7 6 92
1945030S14149 1945 8 SP EA NOT_NAMED 1945-02-01 18:00:00 TS -17.9403 147.189 main 116 116 O_____P__PP___ jtwc_sh SH041945 -17.5000 147.300 -1 -18.6313 147.006 -18.7403 147.225 TC -17.3299 147.113 7 6 94
1945030S14149 1945 8 SP EA NOT_NAMED 1945-02-01 21:00:00 TS -17.9552 147.518 main 143 143 P_____P__PP___ SH041945 -17.4719 147.519 -1 -18.7736 147.432 -18.8756 147.703 TC -17.4130 147.461 7 7 99
1945030S14149 1945 8 SP EA NOT_NAMED 1945-02-01 23:00:00 TS -18.0303 147.798 1003 bom main 162 154 P_____O__PO___ SH041945 -17.5784 147.738 -1 -18.9000 147.800 1003 -18.9592 148.033 TC -17.6000 147.800 7 9 108
1945030S14149 1945 8 SP EA NOT_NAMED 1945-02-02 00:00:00 TS -18.0947 147.970 main 158 153 O_____P__OP___ jtwc_sh SH041945 -17.7000 147.900 -1 -18.9749 148.014 -19.0000 148.200 TC 25 1003 -17.7776 148.008 7 16 125
1945030S14149 1945 8 SP EA NOT_NAMED 1945-02-02 03:00:00 TS -18.6312 148.694 main 161 133 P_____P___P___ SH041945 -18.3947 148.615 -1 -19.2449 148.779 TC -18.4906 148.768 7 21 129
1945030S14149 1945 8 SP EA NOT_NAMED 1945-02-02 06:00:00 TS -19.3817 149.655 main 137 137 O_____P___P___ jtwc_sh SH041945 -19.3000 149.600 -1 -19.5740 149.709 TC -19.3529 149.710 7 25 127
1945030S14149 1945 8 SP EA NOT_NAMED 1945-02-02 09:00:00 TS -20.1236 150.762 main 200 194 P_____P___P___ SH041945 -20.1673 150.732 -1 -19.9506 150.782 TC -20.2090 150.804 7 26 123
1945030S14149 1945 8 SP EA NOT_NAMED 1945-02-02 11:00:00 TS -20.5728 151.576 main 221 221 P_____P___O___ SH041945 -20.6845 151.570 -1 -20.2223 151.566 TC -20.7000 151.600 7 26 118
1945030S14149 1945 8 SP EA NOT_NAMED 1945-02-02 12:00:00 TS -20.7482 151.997 main 232 230 O_____P___P___ jtwc_sh SH041945 -20.9000 152.000 -1 -20.3631 151.976 -20.9058 152.014 7 26 110
1945030S14149 1945 8 SP EA NOT_NAMED 1945-02-02 15:00:00 TS -21.1708 153.292 main 296 296 P_____P___P___ SH041945 -21.3417 153.298 -1 -20.8000 153.267 -21.3707 153.310 7 26 107
1945030S14149 1945 8 SP EA NOT_NAMED 1945-02-02 18:00:00 TS -21.4896 154.637 main 392 392 O_____P___P___ jtwc_sh SH041945 -21.6000 154.600 -1 -21.2500 154.632 -21.6555 154.667 7 26 103
1945030S14149 1945 8 SP EA NOT_NAMED 1945-02-02 21:00:00 NR -21.7625 156.053 main 440 440 ______P___P___ SH041945 -1 -21.7022 156.045 -21.8227 156.061 7 27 102
1945030S14149 1945 8 SP EA NOT_NAMED 1945-02-02 23:00:00 NR -21.9500 157.000 1006 bom main 497 ______O___O___ SH041945 -1 -22.0000 157.000 1006 -21.9000 157.000 7 27 102

デジタル台風データ・検索

IBTrACS Databaseについて

本データベースは、米国NOAAが公開する1842年以降の世界の熱帯低気圧のベストトラックデータアーカイブInternational Best Track Archive for Climate Stewardship (IBTrACS)を、ウェブで閲覧しやすい形式に変換したものです。

最終更新日:2021-12-06